createdAt,value
2019-03-09T00:00:48.435Z,100199.06
2019-03-09T00:01:52.345Z,100191.38
2019-03-09T00:02:55.815Z,100190.58
2019-03-09T00:03:59.255Z,100189.20
2019-03-09T00:05:02.751Z,100180.15
2019-03-09T00:06:06.218Z,100187.02
2019-03-09T00:07:09.933Z,100179.91
2019-03-09T00:08:13.416Z,100173.61
2019-03-09T00:09:16.867Z,100171.44
2019-03-09T00:10:20.310Z,100171.44
2019-03-09T00:11:23.784Z,100167.88
2019-03-09T00:12:27.225Z,100167.08
2019-03-09T00:13:30.700Z,100164.33
2019-03-09T00:14:34.192Z,100162.15
2019-03-09T00:15:37.702Z,100162.38
2019-03-09T00:16:41.171Z,100159.64
2019-03-09T00:17:44.614Z,100153.00
2019-03-09T00:18:48.077Z,100160.20
2019-03-09T00:19:51.719Z,100158.83
2019-03-09T00:20:55.188Z,100152.77
2019-03-09T00:21:58.805Z,100150.59
2019-03-09T00:23:09.975Z,100147.84
2019-03-09T00:24:24.494Z,100145.66
2019-03-09T00:25:31.994Z,100140.40
2019-03-09T00:26:39.766Z,100140.97
2019-03-09T00:27:47.916Z,100145.09
2019-03-09T00:28:55.724Z,100145.66
2019-03-09T00:30:06.582Z,100141.87
2019-03-09T00:31:14.084Z,100142.67
2019-03-09T00:32:19.167Z,100130.08
2019-03-09T00:33:22.639Z,100127.33
2019-03-09T00:34:26.103Z,100129.50
2019-03-09T00:35:29.850Z,100125.15
2019-03-09T00:36:33.316Z,100124.34
2019-03-09T00:37:36.758Z,100128.47
2019-03-09T00:38:40.227Z,100131.78
2019-03-09T00:39:43.685Z,100129.57
2019-03-09T00:40:47.133Z,100122.70
2019-03-09T00:41:50.606Z,100132.32
2019-03-09T00:42:54.040Z,100129.57
2019-03-09T00:43:57.533Z,100125.22
2019-03-09T00:45:01.006Z,100123.84
2019-03-09T00:46:04.449Z,100131.84
2019-03-09T00:47:07.998Z,100112.38
2019-03-09T00:48:11.443Z,100127.73
2019-03-09T00:49:20.590Z,100132.98
2019-03-09T00:50:24.038Z,100130.47
2019-03-09T00:51:27.481Z,100122.80
2019-03-09T00:52:31.131Z,100123.13
2019-03-09T00:53:34.696Z,100123.03
2019-03-09T00:54:38.148Z,100126.35
2019-03-09T00:55:41.633Z,100116.97
2019-03-09T00:56:45.078Z,100111.48
2019-03-09T00:57:48.521Z,100110.10
2019-03-09T00:58:52.014Z,100108.42
2019-03-09T00:59:56.696Z,100107.59
2019-03-09T01:01:00.167Z,100092.48
2019-03-09T01:02:03.829Z,100093.05
2019-03-09T01:03:07.312Z,100094.69
2019-03-09T01:04:10.803Z,100093.84
2019-03-09T01:05:14.789Z,100094.69
2019-03-09T01:06:18.299Z,100088.12
2019-03-09T01:07:21.841Z,100086.98
2019-03-09T01:08:25.305Z,100086.44
2019-03-09T01:09:28.847Z,100089.19
2019-03-09T01:10:32.316Z,100082.05
2019-03-09T01:11:35.765Z,100084.80
2019-03-09T01:12:39.506Z,100081.25
2019-03-09T01:13:42.943Z,100078.50
2019-03-09T01:14:46.385Z,100076.89
2019-03-09T01:15:49.859Z,100074.48
2019-03-09T01:16:53.305Z,100075.05
2019-03-09T01:17:56.773Z,100075.05
2019-03-09T01:19:00.333Z,100071.73
2019-03-09T01:20:04.814Z,100076.19
2019-03-09T01:21:08.283Z,100075.05
2019-03-09T01:22:11.789Z,100064.96
2019-03-09T01:23:15.372Z,100071.27
2019-03-09T01:24:18.861Z,100071.03
2019-03-09T01:25:22.404Z,100068.28
2019-03-09T01:26:25.876Z,100072.16
2019-03-09T01:27:29.342Z,100065.30
2019-03-09T01:28:32.786Z,100060.61
2019-03-09T01:29:36.263Z,100050.75
2019-03-09T01:30:39.788Z,100050.52
2019-03-09T01:31:43.242Z,100053.50
2019-03-09T01:32:46.702Z,100056.25
2019-03-09T01:33:50.153Z,100054.30
2019-03-09T01:34:53.637Z,100056.25
2019-03-09T01:35:57.092Z,100058.43
2019-03-09T01:37:00.547Z,100048.24
2019-03-09T01:38:04.079Z,100044.13
2019-03-09T01:39:07.765Z,100036.69
2019-03-09T01:40:15.838Z,100033.94
2019-03-09T01:41:19.304Z,100040.80
2019-03-09T01:42:22.758Z,100035.88
2019-03-09T01:43:26.229Z,100024.66
2019-03-09T01:44:29.681Z,100030.38
2019-03-09T01:45:33.163Z,100021.34
2019-03-09T01:46:36.631Z,100024.66
2019-03-09T01:47:40.085Z,100026.03
2019-03-09T01:48:43.549Z,100021.91
2019-03-09T01:49:47.082Z,100013.43
2019-03-09T01:50:50.580Z,100022.48
2019-03-09T01:51:54.106Z,100015.14
2019-03-09T01:52:57.628Z,100008.27
2019-03-09T01:54:01.188Z,100010.78
2019-03-09T01:55:07.396Z,100010.22
2019-03-09T01:56:10.936Z,100002.55
2019-03-09T01:57:14.398Z,100009.98
2019-03-09T01:58:17.863Z,100006.09
2019-03-09T01:59:21.319Z,100005.29
2019-03-09T02:00:24.847Z,100000.36
2019-03-09T02:01:28.323Z,100003.91
2019-03-09T02:02:31.843Z,99998.42
2019-03-09T02:03:35.314Z,100003.11
2019-03-09T02:04:38.764Z,100005.86
2019-03-09T02:05:42.214Z,100009.74
2019-03-09T02:06:45.693Z,100005.05
2019-03-09T02:07:49.140Z,99995.20
2019-03-09T02:08:52.665Z,99999.56
2019-03-09T02:09:56.358Z,100002.07
2019-03-09T02:10:59.809Z,100000.70
2019-03-09T02:12:03.284Z,99994.94
2019-03-09T02:13:06.799Z,99999.33
2019-03-09T02:14:10.251Z,99994.41
2019-03-09T02:15:15.047Z,99991.16
2019-03-09T02:16:18.491Z,99995.51
2019-03-09T02:17:21.962Z,99994.41
2019-03-09T02:18:25.486Z,99990.02
2019-03-09T02:19:29.007Z,99981.54
2019-03-09T02:20:32.457Z,99977.42
2019-03-09T02:21:35.930Z,99981.54
2019-03-09T02:22:39.384Z,99989.78
2019-03-09T02:23:42.837Z,99990.35
2019-03-09T02:24:46.286Z,99984.05
2019-03-09T02:25:49.749Z,99985.42
2019-03-09T02:26:53.200Z,99988.17
2019-03-09T02:27:56.678Z,99985.19
2019-03-09T02:29:01.103Z,99986.00
2019-03-09T02:30:07.813Z,99992.86
2019-03-09T02:31:11.329Z,99983.02
2019-03-09T02:32:14.786Z,99976.48
2019-03-09T02:33:18.246Z,99973.17
2019-03-09T02:34:21.719Z,99975.34
2019-03-09T02:35:25.292Z,99986.33
2019-03-09T02:36:28.810Z,99981.41
2019-03-09T02:37:32.310Z,99973.73
2019-03-09T02:38:37.455Z,99976.48
2019-03-09T02:39:42.549Z,99984.16
2019-03-09T02:40:46.006Z,99980.60
2019-03-09T02:41:49.456Z,99969.05
2019-03-09T02:42:52.993Z,99969.62
2019-03-09T02:43:56.465Z,99973.73
2019-03-09T02:44:59.916Z,99974.54
2019-03-09T02:46:03.373Z,99972.03
2019-03-09T02:47:06.825Z,99976.48
2019-03-09T02:48:10.320Z,99978.89
2019-03-09T02:49:13.758Z,99981.64
2019-03-09T02:50:17.751Z,99989.31
2019-03-09T02:51:21.202Z,99981.07
2019-03-09T02:52:24.660Z,99978.56
2019-03-09T02:53:28.246Z,99983.25
2019-03-09T02:54:31.731Z,99980.84
2019-03-09T02:55:35.172Z,99987.13
2019-03-09T02:56:38.642Z,99978.33
2019-03-09T02:57:42.174Z,99975.34
2019-03-09T02:58:45.627Z,99969.62
2019-03-09T02:59:49.102Z,99972.83
2019-03-09T03:00:54.249Z,99967.67
2019-03-09T03:01:59.361Z,99966.06
2019-03-09T03:03:09.482Z,99968.81
2019-03-09T03:04:12.942Z,99963.09
2019-03-09T03:05:16.587Z,99968.01
2019-03-09T03:06:20.086Z,99969.38
2019-03-09T03:07:23.603Z,99971.09
2019-03-09T03:08:27.056Z,99966.17
2019-03-09T03:09:30.510Z,99970.86
2019-03-09T03:10:34.005Z,99968.11
2019-03-09T03:11:37.638Z,99959.06
2019-03-09T03:12:41.091Z,99968.45
2019-03-09T03:13:44.542Z,99968.19
2019-03-09T03:14:48.000Z,99971.50
2019-03-09T03:15:51.469Z,99964.97
2019-03-09T03:16:54.926Z,99971.83
2019-03-09T03:17:58.381Z,99980.88
2019-03-09T03:19:01.824Z,99971.83
2019-03-09T03:20:07.223Z,99973.20
2019-03-09T03:21:10.692Z,99979.80
2019-03-09T03:22:14.143Z,99981.18
2019-03-09T03:23:17.606Z,99973.52
2019-03-09T03:24:21.061Z,99975.22
2019-03-09T03:25:24.644Z,99981.52
2019-03-09T03:26:28.121Z,99986.20
2019-03-09T03:27:31.574Z,99982.32
2019-03-09T03:28:35.034Z,99979.34
2019-03-09T03:29:38.472Z,99976.36
2019-03-09T03:30:41.927Z,99974.75
2019-03-09T03:31:45.418Z,99979.91
2019-03-09T03:32:48.862Z,99979.67
2019-03-09T03:33:52.376Z,99977.73
2019-03-09T03:34:55.906Z,99982.42
2019-03-09T03:35:59.357Z,99983.56
2019-03-09T03:37:02.840Z,99985.27
2019-03-09T03:38:06.285Z,99987.67
2019-03-09T03:39:09.879Z,99981.95
2019-03-09T03:40:13.571Z,99983.89
2019-03-09T03:41:17.032Z,99990.76
2019-03-09T03:42:20.642Z,99982.28
2019-03-09T03:43:24.092Z,99985.27
2019-03-09T03:44:27.612Z,99992.70
2019-03-09T03:45:31.081Z,99997.05
2019-03-09T03:46:34.516Z,99989.15
2019-03-09T03:47:37.985Z,99987.78
2019-03-09T03:48:41.449Z,99994.88
2019-03-09T03:49:44.953Z,99989.72
2019-03-09T03:50:48.424Z,99986.17
2019-03-09T03:51:51.886Z,99993.03
2019-03-09T03:52:55.344Z,99984.23
2019-03-09T03:53:58.820Z,99985.03
2019-03-09T03:55:02.327Z,99984.23
2019-03-09T03:56:05.841Z,99993.27
2019-03-09T03:57:09.366Z,99985.03
2019-03-09T03:58:12.959Z,99997.16
2019-03-09T03:59:16.370Z,99987.78
2019-03-09T04:00:19.973Z,99987.44
2019-03-09T04:01:23.481Z,99990.09
2019-03-09T04:02:27.020Z,99989.75
2019-03-09T04:03:30.485Z,99998.23
2019-03-09T04:04:34.059Z,99991.06
2019-03-09T04:05:37.693Z,99985.73
2019-03-09T04:06:41.265Z,99995.24
2019-03-09T04:07:44.813Z,100006.13
2019-03-09T04:08:48.368Z,100004.09
2019-03-09T04:09:52.151Z,99994.30
2019-03-09T04:10:55.688Z,100000.03
2019-03-09T04:11:59.124Z,99988.50
2019-03-09T04:13:03.312Z,99995.20
2019-03-09T04:14:06.927Z,99996.93
2019-03-09T04:15:10.702Z,99990.66
2019-03-09T04:16:14.170Z,99998.16
2019-03-09T04:17:17.652Z,99986.61
2019-03-09T04:18:21.212Z,99996.13
2019-03-09T04:19:24.702Z,100003.28
2019-03-09T04:20:28.137Z,100003.06
2019-03-09T04:21:31.583Z,100002.28
2019-03-09T04:22:35.052Z,100013.34
2019-03-09T04:23:38.507Z,100011.11
2019-03-09T04:24:42.139Z,100014.94
2019-03-09T04:25:45.608Z,100014.63
2019-03-09T04:26:49.134Z,100025.42
2019-03-09T04:27:52.656Z,100011.47
2019-03-09T04:28:56.171Z,100013.43
2019-03-09T04:29:59.702Z,100007.27
2019-03-09T04:31:03.183Z,100004.86
2019-03-09T04:32:06.623Z,100011.66
2019-03-09T04:33:10.094Z,100012.92
2019-03-09T04:34:13.559Z,100006.49
2019-03-09T04:35:17.020Z,100019.34
2019-03-09T04:36:20.491Z,100017.97
2019-03-09T04:37:23.938Z,100022.33
2019-03-09T04:38:27.380Z,100023.05
2019-03-09T04:39:30.845Z,100028.66
2019-03-09T04:40:34.305Z,100032.45
2019-03-09T04:41:37.790Z,100034.40
2019-03-09T04:42:41.330Z,100030.27
2019-03-09T04:43:44.773Z,100037.95
2019-03-09T04:44:48.239Z,100038.19
2019-03-09T04:45:51.697Z,100047.48
2019-03-09T04:46:55.145Z,100037.03
2019-03-09T04:47:58.626Z,100036.69
2019-03-09T04:49:02.066Z,100040.28
2019-03-09T04:51:09.682Z,100052.47
2019-03-09T04:52:13.139Z,100065.55
2019-03-09T04:53:16.605Z,100054.98
2019-03-09T04:54:20.054Z,100059.92
2019-03-09T04:55:23.510Z,100047.88
2019-03-09T04:56:27.156Z,100054.19
2019-03-09T04:57:30.614Z,100059.23
2019-03-09T04:58:34.065Z,100042.14
2019-03-09T04:59:37.522Z,100051.78
2019-03-09T05:00:40.982Z,100049.48
2019-03-09T05:01:44.458Z,100044.09
2019-03-09T05:02:47.909Z,100046.16
2019-03-09T05:04:03.226Z,100046.73
2019-03-09T05:05:09.220Z,100051.89
2019-03-09T05:06:13.042Z,100050.63
2019-03-09T05:07:19.955Z,100058.09
2019-03-09T05:08:32.313Z,100060.27
2019-03-09T05:10:08.594Z,100068.77
2019-03-09T05:11:12.586Z,100079.44
2019-03-09T05:12:16.046Z,100073.93
2019-03-09T05:13:25.098Z,100085.98
2019-03-09T05:14:28.555Z,100085.98
2019-03-09T05:15:32.017Z,100092.98
2019-03-09T05:16:35.473Z,100097.12
2019-03-09T05:17:38.964Z,100093.79
2019-03-09T05:18:42.424Z,100097.46
2019-03-09T05:19:45.877Z,100093.45
2019-03-09T05:20:49.335Z,100092.64
2019-03-09T05:21:52.790Z,100097.69
2019-03-09T05:22:56.263Z,100078.49
2019-03-09T05:23:59.726Z,100089.86
2019-03-09T05:25:03.247Z,100091.55
2019-03-09T05:26:06.700Z,100074.22
2019-03-09T05:27:10.162Z,100078.34
2019-03-09T05:28:13.640Z,100076.09
2019-03-09T05:29:17.093Z,100062.05
2019-03-09T05:30:37.601Z,100066.19
2019-03-09T05:31:41.049Z,100064.35
2019-03-09T05:32:44.510Z,100070.31
2019-03-09T05:33:47.998Z,100068.94
2019-03-09T05:34:51.438Z,100085.95
2019-03-09T05:35:54.894Z,100082.97
2019-03-09T05:36:58.347Z,100092.35
2019-03-09T05:38:01.811Z,100100.95
2019-03-09T05:39:06.121Z,100103.48
2019-03-09T05:40:09.712Z,100102.22
2019-03-09T05:41:13.169Z,100104.28
2019-03-09T05:42:16.626Z,100116.45
2019-03-09T05:43:20.081Z,100113.35
2019-03-09T05:44:23.562Z,100119.77
2019-03-09T05:45:27.151Z,100120.34
2019-03-09T05:46:30.601Z,100124.94
2019-03-09T05:47:34.057Z,100128.95
2019-03-09T05:48:37.510Z,100138.25
2019-03-09T05:49:40.990Z,100136.65
2019-03-09T05:50:44.509Z,100136.30
2019-03-09T05:52:19.613Z,100141.24
2019-03-09T05:53:23.126Z,100142.27
2019-03-09T05:54:26.581Z,100138.72
2019-03-09T05:55:30.061Z,100141.02
2019-03-09T05:56:33.514Z,100144.56
2019-03-09T05:57:36.972Z,100141.58
2019-03-09T05:58:40.447Z,100144.11
2019-03-09T05:59:43.903Z,100142.39
2019-03-09T06:00:47.377Z,100140.55
2019-03-09T06:01:50.838Z,100144.56
2019-03-09T06:02:54.289Z,100141.80
2019-03-09T06:03:57.765Z,100139.39
2019-03-09T06:05:01.259Z,100139.63
2019-03-09T06:06:04.832Z,100131.25
2019-03-09T06:07:08.306Z,100129.88
2019-03-09T06:08:11.742Z,100116.56
2019-03-09T06:09:15.190Z,100118.75
2019-03-09T06:10:18.706Z,100112.66
2019-03-09T06:11:22.134Z,100107.95
2019-03-09T06:12:25.607Z,100102.68
2019-03-09T06:13:29.151Z,100103.72
2019-03-09T06:14:32.590Z,100105.20
2019-03-09T06:15:36.080Z,100104.17
2019-03-09T06:16:39.524Z,100113.23
2019-03-09T06:17:42.969Z,100110.25
2019-03-09T06:18:46.442Z,100104.05
2019-03-09T06:19:49.886Z,100107.95
2019-03-09T06:20:53.378Z,100113.23
2019-03-09T06:21:56.854Z,100112.43
2019-03-09T06:23:00.298Z,100112.43
2019-03-09T06:24:03.840Z,100118.52
2019-03-09T06:25:07.356Z,100124.25
2019-03-09T06:26:10.806Z,100122.88
2019-03-09T06:27:14.277Z,100127.81
2019-03-09T06:28:17.717Z,100137.33
2019-03-09T06:29:21.224Z,100145.25
2019-03-09T06:30:24.653Z,100137.22
2019-03-09T06:31:28.112Z,100139.41
2019-03-09T06:32:34.632Z,100147.66
2019-03-09T06:33:38.073Z,100140.55
2019-03-09T06:34:41.521Z,100138.94
2019-03-09T06:35:46.136Z,100147.20
2019-03-09T06:36:52.685Z,100147.78
2019-03-09T06:37:59.207Z,100146.73
2019-03-09T06:39:05.354Z,100153.39
2019-03-09T06:40:09.764Z,100150.64
2019-03-09T06:41:25.059Z,100156.72
2019-03-09T06:42:37.103Z,100161.66
2019-03-09T06:43:40.544Z,100167.16
2019-03-09T06:44:44.015Z,100175.66
2019-03-09T06:45:47.457Z,100181.28
2019-03-09T06:46:50.928Z,100184.05
2019-03-09T06:47:54.416Z,100190.13
2019-03-09T06:48:57.861Z,100194.02
2019-03-09T06:50:01.327Z,100199.77
2019-03-09T06:51:04.837Z,100196.55
2019-03-09T06:52:08.282Z,100204.23
2019-03-09T06:53:11.781Z,100197.35
2019-03-09T06:54:15.217Z,100200.91
2019-03-09T06:55:18.690Z,100201.48
2019-03-09T06:56:22.160Z,100198.50
2019-03-09T06:57:25.606Z,100199.87
2019-03-09T06:58:29.098Z,100204.11
2019-03-09T06:59:32.554Z,100198.38
2019-03-09T07:00:37.839Z,100198.14
2019-03-09T07:01:41.313Z,100203.65
2019-03-09T07:02:44.753Z,100209.39
2019-03-09T07:03:48.308Z,100213.18
2019-03-09T07:04:51.787Z,100218.11
2019-03-09T07:05:55.296Z,100226.03
2019-03-09T07:06:58.770Z,100237.39
2019-03-09T07:08:02.389Z,100238.88
2019-03-09T07:09:06.703Z,100237.00
2019-03-09T07:10:10.361Z,100246.75
2019-03-09T07:11:13.817Z,100251.56
2019-03-09T07:12:17.273Z,100257.64
2019-03-09T07:13:20.734Z,100252.23
2019-03-09T07:14:55.522Z,100256.70
2019-03-09T07:15:58.973Z,100259.56
2019-03-09T07:17:02.501Z,100260.55
2019-03-09T07:18:10.807Z,100254.00
2019-03-09T07:19:14.280Z,100258.47
2019-03-09T07:20:17.741Z,100256.29
2019-03-09T07:21:21.223Z,100253.53
2019-03-09T07:22:24.736Z,100256.86
2019-03-09T07:23:28.186Z,100253.77
2019-03-09T07:24:31.668Z,100245.98
2019-03-09T07:25:35.485Z,100249.25
2019-03-09T07:26:39.010Z,100244.10
2019-03-09T07:27:42.471Z,100251.79
2019-03-09T07:28:45.924Z,100240.91
2019-03-09T07:29:49.402Z,100245.19
2019-03-09T07:30:52.938Z,100253.23
2019-03-09T07:31:56.462Z,100248.53
2019-03-09T07:32:59.923Z,100241.09
2019-03-09T07:34:23.522Z,100245.72
2019-03-09T07:35:27.078Z,100251.61
2019-03-09T07:36:30.538Z,100249.59
2019-03-09T07:37:33.990Z,100256.14
2019-03-09T07:38:37.451Z,100261.20
2019-03-09T07:39:40.906Z,100263.16
2019-03-09T07:40:44.449Z,100267.39
2019-03-09T07:41:47.916Z,100273.82
2019-03-09T07:42:51.436Z,100272.29
2019-03-09T07:43:54.898Z,100265.85
2019-03-09T07:44:58.356Z,100260.56
2019-03-09T07:46:01.899Z,100267.19
2019-03-09T07:47:05.435Z,100268.06
2019-03-09T07:48:08.974Z,100268.98
2019-03-09T07:49:12.427Z,100269.09
2019-03-09T07:50:17.127Z,100278.26
2019-03-09T07:51:20.602Z,100280.44
2019-03-09T07:52:35.238Z,100270.80
2019-03-09T07:53:38.696Z,100274.47
2019-03-09T07:54:42.155Z,100276.41
2019-03-09T07:55:45.617Z,100264.02
2019-03-09T07:56:49.098Z,100275.84
2019-03-09T07:57:54.077Z,100282.27
2019-03-09T07:58:57.527Z,100279.84
2019-03-09T08:00:00.982Z,100282.27
2019-03-09T08:01:04.502Z,100294.66
2019-03-09T08:02:07.988Z,100295.23
2019-03-09T08:03:13.383Z,100298.66
2019-03-09T08:04:16.630Z,100292.19
2019-03-09T08:05:20.085Z,100295.85
2019-03-09T08:06:23.539Z,100294.00
2019-03-09T08:07:27.020Z,100289.17
2019-03-09T08:08:30.480Z,100293.17
2019-03-09T08:09:33.937Z,100296.34
2019-03-09T08:10:37.426Z,100284.05
2019-03-09T08:11:40.862Z,100281.06
2019-03-09T08:12:44.489Z,100284.73
2019-03-09T08:13:47.946Z,100281.41
2019-03-09T08:14:51.482Z,100287.72
2019-03-09T08:15:54.939Z,100282.55
2019-03-09T08:16:58.390Z,100290.23
2019-03-09T08:18:01.872Z,100279.45
2019-03-09T08:19:05.358Z,100280.63
2019-03-09T08:20:11.150Z,100288.31
2019-03-09T08:21:14.619Z,100297.38
2019-03-09T08:22:18.090Z,100295.43
2019-03-09T08:23:21.583Z,100305.88
2019-03-09T08:24:25.057Z,100301.09
2019-03-09T08:25:28.498Z,100314.53
2019-03-09T08:26:31.941Z,100312.48
2019-03-09T08:27:35.428Z,100310.53
2019-03-09T08:28:38.958Z,100314.89
2019-03-09T08:29:42.482Z,100303.20
2019-03-09T08:30:45.988Z,100304.53
2019-03-09T08:31:49.424Z,100302.83
2019-03-09T08:32:52.966Z,100302.47
2019-03-09T08:33:56.501Z,100291.58
2019-03-09T08:34:59.950Z,100299.55
2019-03-09T08:36:03.479Z,100299.91
2019-03-09T08:37:06.905Z,100297.15
2019-03-09T08:38:10.377Z,100308.68
2019-03-09T08:39:13.884Z,100311.33
2019-03-09T08:40:18.544Z,100302.38
2019-03-09T08:41:22.022Z,100301.69
2019-03-09T08:42:25.470Z,100289.39
2019-03-09T08:43:28.919Z,100285.61
2019-03-09T08:44:32.479Z,100288.94
2019-03-09T08:45:35.913Z,100283.53
2019-03-09T08:46:39.396Z,100280.78
2019-03-09T08:47:51.643Z,100280.66
2019-03-09T08:48:48.018Z,100278.95
2019-03-09T08:49:51.582Z,100272.52
2019-03-09T08:50:55.046Z,100278.27
2019-03-09T08:51:58.487Z,100270.45
2019-03-09T08:53:02.018Z,100279.64
2019-03-09T08:54:05.528Z,100272.52
2019-03-09T08:55:10.867Z,100274.01
2019-03-09T08:56:14.315Z,100267.57
2019-03-09T08:57:17.854Z,100271.59
2019-03-09T08:58:21.333Z,100281.01
2019-03-09T08:59:24.965Z,100283.88
2019-03-09T09:00:30.921Z,100282.03
2019-03-09T09:01:34.507Z,100282.61
2019-03-09T09:02:37.979Z,100276.60
2019-03-09T09:03:41.450Z,100280.04
2019-03-09T09:04:44.927Z,100286.47
2019-03-09T09:05:48.415Z,100281.64
2019-03-09T09:06:51.885Z,100286.69
2019-03-09T09:07:55.327Z,100281.28
2019-03-09T09:08:58.770Z,100283.06
2019-03-09T09:10:02.248Z,100283.06
2019-03-09T09:11:05.869Z,100292.36
2019-03-09T09:12:09.337Z,100277.89
2019-03-09T09:13:12.835Z,100280.16
2019-03-09T09:14:16.270Z,100291.02
2019-03-09T09:15:19.821Z,100290.55
2019-03-09T09:16:23.289Z,100303.52
2019-03-09T09:17:26.735Z,100299.72
2019-03-09T09:18:30.220Z,100303.95
2019-03-09T09:19:33.665Z,100307.05
2019-03-09T09:20:37.158Z,100305.78
2019-03-09T09:21:40.744Z,100311.98
2019-03-09T09:22:44.179Z,100308.09
2019-03-09T09:23:47.651Z,100311.64
2019-03-09T09:24:51.130Z,100308.32
2019-03-09T09:25:54.617Z,100308.55
2019-03-09T09:27:03.266Z,100307.18
2019-03-09T09:28:06.766Z,100303.85
2019-03-09T09:29:10.208Z,100296.39
2019-03-09T09:30:16.562Z,100297.20
2019-03-09T09:31:20.044Z,100297.43
2019-03-09T09:32:23.529Z,100287.80
2019-03-09T09:33:26.989Z,100286.75
2019-03-09T09:34:30.465Z,100280.09
2019-03-09T09:35:34.057Z,100287.80
2019-03-09T09:36:45.172Z,100284.23
2019-03-09T09:37:48.720Z,100274.59
2019-03-09T09:38:52.245Z,100269.66
2019-03-09T09:39:55.715Z,100271.84
2019-03-09T09:40:59.161Z,100265.06
2019-03-09T09:42:02.633Z,100267.47
2019-03-09T09:43:06.123Z,100274.59
2019-03-09T09:44:09.714Z,100268.17
2019-03-09T09:45:14.346Z,100261.05
2019-03-09T09:46:17.922Z,100263.58
2019-03-09T09:47:21.370Z,100269.31
2019-03-09T09:48:24.935Z,100259.56
2019-03-09T09:49:28.378Z,100262.89
2019-03-09T09:50:31.870Z,100264.27
2019-03-09T09:51:35.343Z,100259.91
2019-03-09T09:52:38.866Z,100255.08
2019-03-09T09:53:42.491Z,100255.08
2019-03-09T09:54:45.936Z,100252.09
2019-03-09T09:55:49.389Z,100244.74
2019-03-09T09:56:52.869Z,100240.37
2019-03-09T09:57:56.317Z,100267.34
2019-03-09T09:58:59.810Z,100275.72
2019-03-09T10:00:03.828Z,100286.73
2019-03-09T10:01:07.391Z,100287.87
2019-03-09T10:02:11.112Z,100294.77
2019-03-09T10:03:14.543Z,100294.53
2019-03-09T10:04:18.047Z,100282.21
2019-03-09T10:05:22.303Z,100286.34
2019-03-09T10:06:25.811Z,100281.41
2019-03-09T10:07:29.358Z,100280.03
2019-03-09T10:08:33.209Z,100269.92
2019-03-09T10:09:36.705Z,100271.06
2019-03-09T10:10:40.636Z,100272.78
2019-03-09T10:11:44.167Z,100259.59
2019-03-09T10:12:47.636Z,100256.37
2019-03-09T10:13:51.178Z,100256.13
2019-03-09T10:14:54.691Z,100245.69
2019-03-09T10:15:58.204Z,100244.66
2019-03-09T10:17:01.702Z,100245.69
2019-03-09T10:18:05.265Z,100256.13
2019-03-09T10:19:11.043Z,100249.36
2019-03-09T10:20:14.168Z,100252.68
2019-03-09T10:21:17.647Z,100253.02
2019-03-09T10:22:21.124Z,100260.78
2019-03-09T10:23:24.572Z,100250.91
2019-03-09T10:24:28.064Z,100263.64
2019-03-09T10:25:31.560Z,100269.38
2019-03-09T10:26:35.001Z,100271.66
2019-03-09T10:27:38.479Z,100279.35
2019-03-09T10:28:41.928Z,100274.19
2019-03-09T10:29:45.379Z,100272.34
2019-03-09T10:30:48.869Z,100275.09
2019-03-09T10:31:52.370Z,100277.61
2019-03-09T10:32:55.839Z,100281.27
2019-03-09T10:33:59.341Z,100286.77
2019-03-09T10:35:02.854Z,100286.55
2019-03-09T10:36:06.427Z,100281.37
2019-03-09T10:37:09.891Z,100280.30
2019-03-09T10:38:13.428Z,100282.82
2019-03-09T10:39:16.974Z,100282.02
2019-03-09T10:40:20.572Z,100274.09
2019-03-09T10:41:24.047Z,100279.37
2019-03-09T10:42:27.627Z,100272.82
2019-03-09T10:43:31.077Z,100263.76
2019-03-09T10:44:34.556Z,100273.16
2019-03-09T10:45:38.103Z,100278.42
2019-03-09T10:46:41.631Z,100274.41
2019-03-09T10:47:45.162Z,100265.11
2019-03-09T10:48:48.691Z,100256.62
2019-03-09T10:49:52.152Z,100262.12
2019-03-09T10:50:55.629Z,100260.48
2019-03-09T10:51:59.434Z,100255.31
2019-03-09T10:53:02.947Z,100255.64
2019-03-09T10:54:06.410Z,100262.30
2019-03-09T10:55:12.405Z,100259.88
2019-03-09T10:56:15.877Z,100254.94
2019-03-09T10:57:19.412Z,100254.73
2019-03-09T10:58:22.876Z,100241.89
2019-03-09T10:59:26.411Z,100245.21
2019-03-09T11:00:38.231Z,100240.84
2019-03-09T11:01:41.802Z,100246.35
2019-03-09T11:02:45.328Z,100241.66
2019-03-09T11:03:48.868Z,100244.41
2019-03-09T11:04:52.341Z,100241.89
2019-03-09T11:05:55.869Z,100239.37
2019-03-09T11:06:59.379Z,100239.03
2019-03-09T11:08:02.974Z,100235.47
2019-03-09T11:09:07.265Z,100235.97
2019-03-09T11:10:10.867Z,100237.25
2019-03-09T11:11:14.541Z,100222.69
2019-03-09T11:12:18.133Z,100237.72
2019-03-09T11:13:21.588Z,100228.89
2019-03-09T11:14:25.329Z,100233.25
2019-03-09T11:15:28.927Z,100233.02
2019-03-09T11:16:32.582Z,100224.42
2019-03-09T11:17:36.122Z,100217.20
2019-03-09T11:18:39.652Z,100222.48
2019-03-09T11:19:43.089Z,100231.53
2019-03-09T11:20:46.771Z,100223.28
2019-03-09T11:21:50.235Z,100223.62
2019-03-09T11:22:53.949Z,100225.00
2019-03-09T11:23:57.401Z,100227.52
2019-03-09T11:25:03.653Z,100222.01
2019-03-09T11:26:06.247Z,100229.45
2019-03-09T11:27:09.760Z,100230.50
2019-03-09T11:28:13.942Z,100226.61
2019-03-09T11:29:17.856Z,100229.02
2019-03-09T11:30:24.362Z,100230.63
2019-03-09T11:31:27.813Z,100222.03
2019-03-09T11:32:31.273Z,100228.91
2019-03-09T11:33:34.751Z,100226.73
2019-03-09T11:34:38.203Z,100224.45
2019-03-09T11:35:41.666Z,100222.27
2019-03-09T11:36:45.122Z,100217.91
2019-03-09T11:37:48.721Z,100229.15
2019-03-09T11:38:52.199Z,100229.15
2019-03-09T11:39:55.822Z,100228.34
2019-03-09T11:41:00.875Z,100227.77
2019-03-09T11:42:04.796Z,100235.22
2019-03-09T11:43:08.317Z,100222.03
2019-03-09T11:44:11.788Z,100233.05
2019-03-09T11:45:19.208Z,100231.09
2019-03-09T11:46:22.866Z,100225.59
2019-03-09T11:47:26.370Z,100214.92
2019-03-09T11:48:29.838Z,100191.30
2019-03-09T11:49:33.306Z,100178.91
2019-03-09T11:50:36.911Z,100188.54
2019-03-09T11:51:40.580Z,100174.78
2019-03-09T11:52:44.163Z,100181.89
2019-03-09T11:53:47.643Z,100175.58
2019-03-09T11:54:51.133Z,100176.39
2019-03-09T11:55:54.659Z,100177.30
2019-03-09T11:56:58.123Z,100161.82
2019-03-09T11:58:01.565Z,100149.77
2019-03-09T11:59:05.081Z,100137.39
2019-03-09T12:00:15.918Z,100137.86
2019-03-09T12:01:19.430Z,100142.78
2019-03-09T12:02:22.973Z,100146.11
2019-03-09T12:03:26.713Z,100139.23
2019-03-09T12:04:30.177Z,100133.95
2019-03-09T12:05:33.648Z,100146.91
2019-03-09T12:06:37.092Z,100109.53
2019-03-09T12:07:40.540Z,100102.41
2019-03-09T12:08:44.019Z,100097.95
2019-03-09T12:09:47.483Z,100073.52
2019-03-09T12:10:50.951Z,100064.69
2019-03-09T12:12:02.312Z,100061.70
2019-03-09T12:13:05.841Z,100056.20
2019-03-09T12:14:09.320Z,100052.88
2019-03-09T12:15:17.306Z,100057.58